sensor_id;sensor_type;location;lat;lon;timestamp;pressure;altitude;pressure_sealevel;temperature;humidity
49216;BME280;45943;53.148;8.204;2023-02-16T00:01:48;102324.28;;;9.65;100.00
49216;BME280;45943;53.148;8.204;2023-02-16T00:04:16;102327.75;;;9.67;100.00
49216;BME280;45943;53.148;8.204;2023-02-16T00:06:44;102322.47;;;9.65;100.00
49216;BME280;45943;53.148;8.204;2023-02-16T00:09:11;102315.44;;;9.63;100.00
49216;BME280;45943;53.148;8.204;2023-02-16T00:11:37;102313.03;;;9.58;100.00
49216;BME280;45943;53.148;8.204;2023-02-16T00:14:22;102310.34;;;9.58;100.00
49216;BME280;45943;53.148;8.204;2023-02-16T00:16:54;102309.22;;;9.62;100.00
49216;BME280;45943;53.148;8.204;2023-02-16T00:19:26;102301.44;;;9.58;100.00
49216;BME280;45943;53.148;8.204;2023-02-16T00:21:58;102302.09;;;9.45;100.00
49216;BME280;45943;53.148;8.204;2023-02-16T00:24:25;102301.94;;;9.48;100.00
49216;BME280;45943;53.148;8.204;2023-02-16T00:26:52;102299.84;;;9.54;100.00
49216;BME280;45943;53.148;8.204;2023-02-16T00:29:23;102295.53;;;9.51;100.00
49216;BME280;45943;53.148;8.204;2023-02-16T00:31:54;102301.66;;;9.53;100.00
49216;BME280;45943;53.148;8.204;2023-02-16T00:36:58;102287.41;;;9.53;100.00
49216;BME280;45943;53.148;8.204;2023-02-16T00:39:26;102277.91;;;9.47;100.00
49216;BME280;45943;53.148;8.204;2023-02-16T00:41:53;102288.72;;;9.45;100.00
49216;BME280;45943;53.148;8.204;2023-02-16T00:44:26;102300.38;;;9.44;100.00
49216;BME280;45943;53.148;8.204;2023-02-16T00:47:00;102305.56;;;9.47;100.00
49216;BME280;45943;53.148;8.204;2023-02-16T00:49:35;102304.59;;;9.48;100.00
49216;BME280;45943;53.148;8.204;2023-02-16T00:52:01;102296.75;;;9.45;100.00
49216;BME280;45943;53.148;8.204;2023-02-16T00:54:33;102300.38;;;9.44;100.00
49216;BME280;45943;53.148;8.204;2023-02-16T00:56:59;102300.38;;;9.44;100.00
49216;BME280;45943;53.148;8.204;2023-02-16T00:59:25;102303.03;;;9.44;100.00
49216;BME280;45943;53.148;8.204;2023-02-16T01:01:51;102295.06;;;9.43;100.00
49216;BME280;45943;53.148;8.204;2023-02-16T01:04:18;102300.69;;;9.38;100.00
49216;BME280;45943;53.148;8.204;2023-02-16T01:06:46;102290.06;;;9.37;100.00
49216;BME280;45943;53.148;8.204;2023-02-16T01:09:31;102299.34;;;9.30;100.00
49216;BME280;45943;53.148;8.204;2023-02-16T01:12:16;102300.13;;;9.32;100.00
49216;BME280;45943;53.148;8.204;2023-02-16T01:14:45;102292.00;;;9.33;100.00
49216;BME280;45943;53.148;8.204;2023-02-16T01:17:14;102293.75;;;9.34;100.00
49216;BME280;45943;53.148;8.204;2023-02-16T01:19:40;102293.13;;;9.29;100.00
49216;BME280;45943;53.148;8.204;2023-02-16T01:22:06;102295.31;;;9.21;100.00
49216;BME280;45943;53.148;8.204;2023-02-16T01:24:32;102297.47;;;9.14;100.00
49216;BME280;45943;53.148;8.204;2023-02-16T01:26:58;102283.34;;;9.11;100.00
49216;BME280;45943;53.148;8.204;2023-02-16T01:29:24;102284.94;;;9.15;100.00
49216;BME280;45943;53.148;8.204;2023-02-16T01:31:50;102295.66;;;9.15;100.00
49216;BME280;45943;53.148;8.204;2023-02-16T01:34:16;102300.16;;;9.14;100.00
49216;BME280;45943;53.148;8.204;2023-02-16T01:36:43;102293.84;;;9.15;100.00
49216;BME280;45943;53.148;8.204;2023-02-16T01:39:15;102289.44;;;9.14;100.00
49216;BME280;45943;53.148;8.204;2023-02-16T01:44:35;102280.94;;;9.06;100.00
49216;BME280;45943;53.148;8.204;2023-02-16T01:52:48;102282.75;;;9.06;100.00
49216;BME280;45943;53.148;8.204;2023-02-16T01:55:23;102282.78;;;9.04;100.00
49216;BME280;45943;53.148;8.204;2023-02-16T02:04:36;102281.00;;;9.05;100.00
49216;BME280;45943;53.148;8.204;2023-02-16T02:07:26;102281.16;;;9.02;100.00
49216;BME280;45943;53.148;8.204;2023-02-16T02:10:13;102276.56;;;9.04;100.00
49216;BME280;45943;53.148;8.204;2023-02-16T02:12:51;102281.94;;;9.04;100.00
49216;BME280;45943;53.148;8.204;2023-02-16T02:15:37;102282.66;;;9.07;100.00
49216;BME280;45943;53.148;8.204;2023-02-16T02:18:03;102275.72;;;9.03;100.00
49216;BME280;45943;53.148;8.204;2023-02-16T02:34:11;102267.28;;;8.94;100.00
49216;BME280;45943;53.148;8.204;2023-02-16T02:36:44;102261.53;;;8.84;100.00
49216;BME280;45943;53.148;8.204;2023-02-16T02:39:32;102260.44;;;8.88;100.00
49216;BME280;45943;53.148;8.204;2023-02-16T02:42:26;102244.41;;;8.88;100.00
49216;BME280;45943;53.148;8.204;2023-02-16T02:44:56;102249.34;;;8.78;100.00
49216;BME280;45943;53.148;8.204;2023-02-16T02:47:39;102250.09;;;8.63;100.00
49216;BME280;45943;53.148;8.204;2023-02-16T02:53:05;102237.13;;;8.73;100.00
49216;BME280;45943;53.148;8.204;2023-02-16T02:55:37;102239.72;;;8.74;100.00
49216;BME280;45943;53.148;8.204;2023-02-16T02:58:28;102233.38;;;8.77;100.00
49216;BME280;45943;53.148;8.204;2023-02-16T03:01:18;102229.97;;;8.73;100.00
49216;BME280;45943;53.148;8.204;2023-02-16T03:03:47;102231.09;;;8.69;100.00
49216;BME280;45943;53.148;8.204;2023-02-16T03:06:23;102226.53;;;8.71;100.00
49216;BME280;45943;53.148;8.204;2023-02-16T03:08:56;102227.47;;;8.70;100.00
49216;BME280;45943;53.148;8.204;2023-02-16T03:11:27;102218.78;;;8.65;100.00
49216;BME280;45943;53.148;8.204;2023-02-16T03:14:13;102214.63;;;8.59;100.00
49216;BME280;45943;53.148;8.204;2023-02-16T03:16:44;102203.22;;;8.56;100.00
49216;BME280;45943;53.148;8.204;2023-02-16T03:19:14;102209.19;;;8.61;100.00
49216;BME280;45943;53.148;8.204;2023-02-16T03:22:01;102197.94;;;8.54;100.00
49216;BME280;45943;53.148;8.204;2023-02-16T03:24:46;102197.69;;;8.42;100.00
49216;BME280;45943;53.148;8.204;2023-02-16T03:27:33;102191.47;;;8.41;100.00
49216;BME280;45943;53.148;8.204;2023-02-16T03:30:22;102194.81;;;8.46;100.00
49216;BME280;45943;53.148;8.204;2023-02-16T03:32:50;102194.47;;;8.52;100.00
49216;BME280;45943;53.148;8.204;2023-02-16T03:35:17;102206.69;;;8.58;100.00
49216;BME280;45943;53.148;8.204;2023-02-16T03:37:44;102212.44;;;8.68;100.00
49216;BME280;45943;53.148;8.204;2023-02-16T03:40:12;102209.91;;;8.65;100.00
49216;BME280;45943;53.148;8.204;2023-02-16T03:43:01;102207.56;;;8.58;100.00
49216;BME280;45943;53.148;8.204;2023-02-16T03:45:28;102211.97;;;8.59;100.00
49216;BME280;45943;53.148;8.204;2023-02-16T03:47:56;102199.59;;;8.40;100.00
49216;BME280;45943;53.148;8.204;2023-02-16T03:50:22;102205.00;;;8.38;100.00
49216;BME280;45943;53.148;8.204;2023-02-16T03:52:50;102198.88;;;8.36;100.00
49216;BME280;45943;53.148;8.204;2023-02-16T03:55:17;102201.47;;;8.38;100.00
49216;BME280;45943;53.148;8.204;2023-02-16T03:57:43;102204.16;;;8.38;100.00
49216;BME280;45943;53.148;8.204;2023-02-16T04:00:09;102208.47;;;8.40;100.00
49216;BME280;45943;53.148;8.204;2023-02-16T04:02:36;102206.75;;;8.39;100.00
49216;BME280;45943;53.148;8.204;2023-02-16T04:05:02;102204.94;;;8.40;100.00
49216;BME280;45943;53.148;8.204;2023-02-16T04:07:28;102216.13;;;8.48;100.00
49216;BME280;45943;53.148;8.204;2023-02-16T04:09:54;102218.13;;;8.43;100.00
49216;BME280;45943;53.148;8.204;2023-02-16T04:12:20;102214.38;;;8.47;100.00
49216;BME280;45943;53.148;8.204;2023-02-16T04:15:02;102209.81;;;8.49;100.00
49216;BME280;45943;53.148;8.204;2023-02-16T04:17:32;102212.59;;;8.47;100.00
49216;BME280;45943;53.148;8.204;2023-02-16T04:19:58;102215.38;;;8.44;100.00
49216;BME280;45943;53.148;8.204;2023-02-16T04:22:24;102226.16;;;8.43;100.00
49216;BME280;45943;53.148;8.204;2023-02-16T04:24:50;102225.28;;;8.42;100.00
49216;BME280;45943;53.148;8.204;2023-02-16T04:27:16;102222.63;;;8.42;100.00
49216;BME280;45943;53.148;8.204;2023-02-16T04:29:42;102222.53;;;8.44;100.00
49216;BME280;45943;53.148;8.204;2023-02-16T04:32:08;102227.69;;;8.48;100.00
49216;BME280;45943;53.148;8.204;2023-02-16T04:34:34;102220.72;;;8.44;100.00
49216;BME280;45943;53.148;8.204;2023-02-16T04:37:00;102215.38;;;8.44;100.00
49216;BME280;45943;53.148;8.204;2023-02-16T04:39:27;102208.31;;;8.43;100.00
49216;BME280;45943;53.148;8.204;2023-02-16T04:41:53;102207.38;;;8.44;100.00
49216;BME280;45943;53.148;8.204;2023-02-16T04:44:19;102203.63;;;8.48;100.00
49216;BME280;45943;53.148;8.204;2023-02-16T04:46:45;102208.22;;;8.45;100.00
49216;BME280;45943;53.148;8.204;2023-02-16T04:49:11;102211.63;;;8.48;100.00
49216;BME280;45943;53.148;8.204;2023-02-16T04:51:37;102210.00;;;8.46;100.00
49216;BME280;45943;53.148;8.204;2023-02-16T04:54:05;102202.84;;;8.46;100.00
49216;BME280;45943;53.148;8.204;2023-02-16T04:56:31;102200.19;;;8.45;100.00
49216;BME280;45943;53.148;8.204;2023-02-16T04:58:57;102192.44;;;8.40;100.00
49216;BME280;45943;53.148;8.204;2023-02-16T05:01:24;102203.28;;;8.37;100.00
49216;BME280;45943;53.148;8.204;2023-02-16T05:03:52;102188.03;;;8.39;100.00
49216;BME280;45943;53.148;8.204;2023-02-16T05:06:18;102197.16;;;8.33;100.00
49216;BME280;45943;53.148;8.204;2023-02-16T05:08:44;102196.31;;;8.33;100.00
49216;BME280;45943;53.148;8.204;2023-02-16T05:11:11;102187.00;;;8.23;100.00
49216;BME280;45943;53.148;8.204;2023-02-16T05:13:56;102185.44;;;8.19;100.00
49216;BME280;45943;53.148;8.204;2023-02-16T05:16:41;102180.31;;;8.14;100.00
49216;BME280;45943;53.148;8.204;2023-02-16T05:19:08;102184.50;;;8.20;100.00
49216;BME280;45943;53.148;8.204;2023-02-16T05:21:34;102183.47;;;8.22;100.00
49216;BME280;45943;53.148;8.204;2023-02-16T05:24:04;102185.34;;;8.39;100.00
49216;BME280;45943;53.148;8.204;2023-02-16T05:26:32;102186.06;;;8.43;100.00
49216;BME280;45943;53.148;8.204;2023-02-16T05:28:59;102189.09;;;8.35;100.00
49216;BME280;45943;53.148;8.204;2023-02-16T05:31:26;102185.09;;;8.44;100.00
49216;BME280;45943;53.148;8.204;2023-02-16T05:33:53;102183.25;;;8.46;100.00
49216;BME280;45943;53.148;8.204;2023-02-16T05:36:20;102185.84;;;8.47;100.00
49216;BME280;45943;53.148;8.204;2023-02-16T05:38:47;102185.75;;;8.49;100.00
49216;BME280;45943;53.148;8.204;2023-02-16T05:41:13;102179.31;;;8.53;100.00
49216;BME280;45943;53.148;8.204;2023-02-16T05:43:51;102179.84;;;8.42;100.00
49216;BME280;45943;53.148;8.204;2023-02-16T05:46:23;102180.72;;;8.43;100.00
49216;BME280;45943;53.148;8.204;2023-02-16T05:48:50;102193.28;;;8.41;100.00
49216;BME280;45943;53.148;8.204;2023-02-16T05:51:16;102185.84;;;8.47;100.00
49216;BME280;45943;53.148;8.204;2023-02-16T05:53:43;102193.22;;;8.42;100.00
49216;BME280;45943;53.148;8.204;2023-02-16T05:56:10;102195.03;;;8.42;100.00
49216;BME280;45943;53.148;8.204;2023-02-16T05:58:36;102184.91;;;8.48;100.00
49216;BME280;45943;53.148;8.204;2023-02-16T06:01:02;102183.75;;;8.35;100.00
49216;BME280;45943;53.148;8.204;2023-02-16T06:03:29;102189.59;;;8.24;100.00
49216;BME280;45943;53.148;8.204;2023-02-16T06:05:56;102181.13;;;8.33;100.00
49216;BME280;45943;53.148;8.204;2023-02-16T06:08:23;102172.94;;;8.19;100.00
49216;BME280;45943;53.148;8.204;2023-02-16T06:10:50;102180.72;;;8.24;100.00
49216;BME280;45943;53.148;8.204;2023-02-16T06:13:17;102175.09;;;8.30;100.00
49216;BME280;45943;53.148;8.204;2023-02-16T06:15:44;102171.53;;;8.29;100.00
49216;BME280;45943;53.148;8.204;2023-02-16T06:18:11;102189.31;;;8.30;100.00
49216;BME280;45943;53.148;8.204;2023-02-16T06:20:37;102203.69;;;8.47;100.00
49216;BME280;45943;53.148;8.204;2023-02-16T06:23:05;102202.28;;;8.57;100.00
49216;BME280;45943;53.148;8.204;2023-02-16T06:25:32;102190.97;;;8.69;100.00
49216;BME280;45943;53.148;8.204;2023-02-16T06:27:58;102200.81;;;8.86;100.00
49216;BME280;45943;53.148;8.204;2023-02-16T06:30:25;102206.47;;;8.97;100.00
49216;BME280;45943;53.148;8.204;2023-02-16T06:32:51;102202.19;;;9.10;100.00
49216;BME280;45943;53.148;8.204;2023-02-16T06:35:17;102206.44;;;9.14;100.00
49216;BME280;45943;53.148;8.204;2023-02-16T06:37:43;102207.63;;;9.09;100.00
49216;BME280;45943;53.148;8.204;2023-02-16T06:40:09;102210.78;;;9.17;100.00
49216;BME280;45943;53.148;8.204;2023-02-16T06:42:39;102206.97;;;9.21;100.00
49216;BME280;45943;53.148;8.204;2023-02-16T06:45:05;102210.69;;;9.18;100.00
49216;BME280;45943;53.148;8.204;2023-02-16T06:47:32;102217.59;;;9.23;100.00
49216;BME280;45943;53.148;8.204;2023-02-16T06:49:58;102205.50;;;9.15;100.00
49216;BME280;45943;53.148;8.204;2023-02-16T06:52:24;102207.31;;;9.15;100.00
49216;BME280;45943;53.148;8.204;2023-02-16T06:54:49;102204.47;;;9.18;100.00
49216;BME280;45943;53.148;8.204;2023-02-16T06:57:15;102205.41;;;9.17;100.00
49216;BME280;45943;53.148;8.204;2023-02-16T06:59:41;102203.44;;;9.20;100.00
49216;BME280;45943;53.148;8.204;2023-02-16T07:02:08;102202.00;;;9.31;100.00
49216;BME280;45943;53.148;8.204;2023-02-16T07:04:35;102195.94;;;9.27;100.00
49216;BME280;45943;53.148;8.204;2023-02-16T07:07:01;102207.84;;;9.22;100.00
49216;BME280;45943;53.148;8.204;2023-02-16T07:09:28;102207.75;;;9.23;100.00
49216;BME280;45943;53.148;8.204;2023-02-16T07:11:54;102205.06;;;9.23;100.00
49216;BME280;45943;53.148;8.204;2023-02-16T07:14:20;102199.97;;;9.18;100.00
49216;BME280;45943;53.148;8.204;2023-02-16T07:16:46;102195.88;;;9.11;100.00
49216;BME280;45943;53.148;8.204;2023-02-16T07:19:12;102202.03;;;9.13;100.00
49216;BME280;45943;53.148;8.204;2023-02-16T07:21:39;102202.44;;;9.06;100.00
49216;BME280;45943;53.148;8.204;2023-02-16T07:24:05;102209.66;;;9.04;100.00
49216;BME280;45943;53.148;8.204;2023-02-16T07:26:31;102207.56;;;8.93;100.00
49216;BME280;45943;53.148;8.204;2023-02-16T07:28:57;102213.38;;;9.01;100.00
49216;BME280;45943;53.148;8.204;2023-02-16T07:31:23;102208.75;;;9.05;100.00
49216;BME280;45943;53.148;8.204;2023-02-16T07:33:52;102209.34;;;9.10;100.00
49216;BME280;45943;53.148;8.204;2023-02-16T07:36:18;102201.31;;;9.10;100.00
49216;BME280;45943;53.148;8.204;2023-02-16T07:38:44;102217.00;;;9.17;100.00
49216;BME280;45943;53.148;8.204;2023-02-16T07:41:10;102214.06;;;9.22;100.00
49216;BME280;45943;53.148;8.204;2023-02-16T07:43:37;102214.78;;;9.26;100.00
49216;BME280;45943;53.148;8.204;2023-02-16T07:46:03;102205.63;;;9.30;100.00
49216;BME280;45943;53.148;8.204;2023-02-16T07:48:30;102202.25;;;9.26;100.00
49216;BME280;45943;53.148;8.204;2023-02-16T07:50:56;102199.56;;;9.26;100.00
49216;BME280;45943;53.148;8.204;2023-02-16T07:53:22;102191.28;;;9.31;100.00
49216;BME280;45943;53.148;8.204;2023-02-16T07:55:48;102200.91;;;9.35;100.00
49216;BME280;45943;53.148;8.204;2023-02-16T07:58:14;102202.94;;;9.30;100.00
49216;BME280;45943;53.148;8.204;2023-02-16T08:00:52;102204.75;;;9.29;100.00
49216;BME280;45943;53.148;8.204;2023-02-16T08:03:22;102199.22;;;9.32;100.00
49216;BME280;45943;53.148;8.204;2023-02-16T08:05:48;102193.66;;;9.37;100.00
49216;BME280;45943;53.148;8.204;2023-02-16T08:08:14;102201.50;;;9.40;100.00
49216;BME280;45943;53.148;8.204;2023-02-16T08:10:40;102209.81;;;9.35;100.00
49216;BME280;45943;53.148;8.204;2023-02-16T08:13:06;102209.72;;;9.37;100.00
49216;BME280;45943;53.148;8.204;2023-02-16T08:15:32;102206.84;;;9.40;100.00
49216;BME280;45943;53.148;8.204;2023-02-16T08:17:58;102211.25;;;9.41;100.00
49216;BME280;45943;53.148;8.204;2023-02-16T08:20:24;102216.78;;;9.38;100.00
49216;BME280;45943;53.148;8.204;2023-02-16T08:22:52;102221.19;;;9.39;100.00
49216;BME280;45943;53.148;8.204;2023-02-16T08:25:18;102221.88;;;9.42;100.00
49216;BME280;45943;53.148;8.204;2023-02-16T08:27:44;102221.75;;;9.45;100.00
49216;BME280;45943;53.148;8.204;2023-02-16T08:30:11;102226.06;;;9.48;100.00
49216;BME280;45943;53.148;8.204;2023-02-16T08:32:38;102230.28;;;9.52;100.00
49216;BME280;45943;53.148;8.204;2023-02-16T08:35:08;102222.34;;;9.51;100.00
49216;BME280;45943;53.148;8.204;2023-02-16T08:37:36;102226.38;;;9.42;100.00
49216;BME280;45943;53.148;8.204;2023-02-16T08:40:04;102231.22;;;9.35;100.00
49216;BME280;45943;53.148;8.204;2023-02-16T08:42:32;102222.31;;;9.35;100.00
49216;BME280;45943;53.148;8.204;2023-02-16T08:44:58;102228.28;;;9.40;100.00
49216;BME280;45943;53.148;8.204;2023-02-16T08:47:24;102219.38;;;9.39;100.00
49216;BME280;45943;53.148;8.204;2023-02-16T08:49:51;102213.38;;;9.52;100.00
49216;BME280;45943;53.148;8.204;2023-02-16T08:52:17;102218.41;;;9.58;100.00
49216;BME280;45943;53.148;8.204;2023-02-16T08:54:44;102216.59;;;9.58;100.00
49216;BME280;45943;53.148;8.204;2023-02-16T08:57:10;102214.50;;;9.63;100.00
49216;BME280;45943;53.148;8.204;2023-02-16T08:59:36;102210.97;;;9.63;100.00
49216;BME280;45943;53.148;8.204;2023-02-16T09:02:02;102208.97;;;9.51;100.00
49216;BME280;45943;53.148;8.204;2023-02-16T09:04:28;102217.13;;;9.65;100.00
49216;BME280;45943;53.148;8.204;2023-02-16T09:06:55;102218.50;;;9.72;100.00
49216;BME280;45943;53.148;8.204;2023-02-16T09:09:22;102220.66;;;9.65;100.00
49216;BME280;45943;53.148;8.204;2023-02-16T09:11:49;102233.13;;;9.82;100.00
49216;BME280;45943;53.148;8.204;2023-02-16T09:14:18;102231.66;;;9.92;100.00
49216;BME280;45943;53.148;8.204;2023-02-16T09:16:44;102237.88;;;9.93;100.00
49216;BME280;45943;53.148;8.204;2023-02-16T09:19:12;102239.00;;;9.89;100.00
49216;BME280;45943;53.148;8.204;2023-02-16T09:21:39;102235.16;;;9.94;100.00
49216;BME280;45943;53.148;8.204;2023-02-16T09:24:06;102234.50;;;9.89;100.00
49216;BME280;45943;53.148;8.204;2023-02-16T09:26:33;102238.50;;;9.98;100.00
49216;BME280;45943;53.148;8.204;2023-02-16T09:29:05;102230.91;;;10.06;100.00
49216;BME280;45943;53.148;8.204;2023-02-16T09:31:32;102225.78;;;10.17;100.00
49216;BME280;45943;53.148;8.204;2023-02-16T09:34:05;102228.72;;;10.13;100.00
49216;BME280;45943;53.148;8.204;2023-02-16T09:36:38;102236.53;;;10.17;100.00
49216;BME280;45943;53.148;8.204;2023-02-16T09:39:04;102245.44;;;10.18;100.00
49216;BME280;45943;53.148;8.204;2023-02-16T09:46:51;102241.66;;;10.22;100.00
49216;BME280;45943;53.148;8.204;2023-02-16T09:52:13;102245.53;;;10.32;100.00
49216;BME280;45943;53.148;8.204;2023-02-16T09:54:48;102251.59;;;10.36;100.00
49216;BME280;45943;53.148;8.204;2023-02-16T10:00:20;102251.00;;;10.46;100.00
49216;BME280;45943;53.148;8.204;2023-02-16T10:08:44;102249.16;;;10.47;100.00
49216;BME280;45943;53.148;8.204;2023-02-16T10:11:24;102253.66;;;10.46;100.00
49216;BME280;45943;53.148;8.204;2023-02-16T10:14:30;102245.72;;;10.45;100.00
49216;BME280;45943;53.148;8.204;2023-02-16T10:17:05;102246.69;;;10.44;100.00
49216;BME280;45943;53.148;8.204;2023-02-16T10:22:40;102245.00;;;10.41;100.00
49216;BME280;45943;53.148;8.204;2023-02-16T10:25:14;102248.31;;;10.46;100.00
49216;BME280;45943;53.148;8.204;2023-02-16T10:27:46;102256.34;;;10.46;100.00
49216;BME280;45943;53.148;8.204;2023-02-16T10:30:21;102253.34;;;10.37;100.00
49216;BME280;45943;53.148;8.204;2023-02-16T10:32:54;102242.59;;;10.37;100.00
49216;BME280;45943;53.148;8.204;2023-02-16T10:35:41;102246.78;;;10.42;100.00
49216;BME280;45943;53.148;8.204;2023-02-16T10:38:13;102263.78;;;10.41;100.00
49216;BME280;45943;53.148;8.204;2023-02-16T10:46:35;102259.38;;;10.40;100.00
49216;BME280;45943;53.148;8.204;2023-02-16T10:49:07;102262.91;;;10.41;100.00
49216;BME280;45943;53.148;8.204;2023-02-16T10:51:39;102260.84;;;10.46;100.00
49216;BME280;45943;53.148;8.204;2023-02-16T10:54:15;102260.00;;;10.45;100.00
49216;BME280;45943;53.148;8.204;2023-02-16T10:56:48;102266.31;;;10.44;100.00
49216;BME280;45943;53.148;8.204;2023-02-16T11:01:56;102249.34;;;10.44;100.00
49216;BME280;45943;53.148;8.204;2023-02-16T11:07:23;102253.44;;;10.35;100.00
49216;BME280;45943;53.148;8.204;2023-02-16T11:09:55;102252.28;;;10.39;100.00
49216;BME280;45943;53.148;8.204;2023-02-16T11:14:53;102258.78;;;10.35;100.00
49216;BME280;45943;53.148;8.204;2023-02-16T11:17:51;102251.59;;;10.36;100.00
49216;BME280;45943;53.148;8.204;2023-02-16T11:28:36;102253.84;;;10.27;100.00
49216;BME280;45943;53.148;8.204;2023-02-16T11:33:58;102256.19;;;10.33;100.00
49216;BME280;45943;53.148;8.204;2023-02-16T11:39:00;102246.91;;;10.39;100.00
49216;BME280;45943;53.148;8.204;2023-02-16T11:41:31;102241.47;;;10.41;100.00
49216;BME280;45943;53.148;8.204;2023-02-16T11:43:58;102239.31;;;10.47;100.00
49216;BME280;45943;53.148;8.204;2023-02-16T11:46:26;102245.63;;;10.46;100.00
49216;BME280;45943;53.148;8.204;2023-02-16T11:48:52;102244.75;;;10.46;100.00
49216;BME280;45943;53.148;8.204;2023-02-16T11:51:28;102245.72;;;10.45;100.00
49216;BME280;45943;53.148;8.204;2023-02-16T11:54:00;102254.34;;;10.50;100.00
49216;BME280;45943;53.148;8.204;2023-02-16T11:56:35;102242.84;;;10.48;100.00
49216;BME280;45943;53.148;8.204;2023-02-16T11:59:19;102246.22;;;10.51;100.00
49216;BME280;45943;53.148;8.204;2023-02-16T12:07:22;102235.13;;;10.57;100.00
49216;BME280;45943;53.148;8.204;2023-02-16T12:15:51;102239.41;;;10.46;100.00
49216;BME280;45943;53.148;8.204;2023-02-16T12:18:42;102238.16;;;10.51;100.00
49216;BME280;45943;53.148;8.204;2023-02-16T12:21:23;102225.31;;;10.42;100.00
49216;BME280;45943;53.148;8.204;2023-02-16T12:27:11;102201.41;;;10.53;100.00
49216;BME280;45943;53.148;8.204;2023-02-16T12:29:55;102208.19;;;10.59;100.00
49216;BME280;45943;53.148;8.204;2023-02-16T12:32:48;102213.56;;;10.59;100.00
49216;BME280;45943;53.148;8.204;2023-02-16T12:35:38;102210.41;;;10.52;100.00
49216;BME280;45943;53.148;8.204;2023-02-16T12:41:17;102184.44;;;10.53;100.00
49216;BME280;45943;53.148;8.204;2023-02-16T12:43:56;102181.56;;;10.56;100.00
49216;BME280;45943;53.148;8.204;2023-02-16T12:46:37;102174.19;;;10.59;100.00
49216;BME280;45943;53.148;8.204;2023-02-16T12:49:22;102167.84;;;10.60;100.00
49216;BME280;45943;53.148;8.204;2023-02-16T12:52:10;102153.97;;;10.54;100.00
49216;BME280;45943;53.148;8.204;2023-02-16T12:54:48;102157.59;;;10.53;100.00
49216;BME280;45943;53.148;8.204;2023-02-16T12:57:19;102150.31;;;10.55;100.00
49216;BME280;45943;53.148;8.204;2023-02-16T12:59:53;102157.97;;;10.47;100.00
49216;BME280;45943;53.148;8.204;2023-02-16T13:02:47;102146.38;;;10.46;100.00
49216;BME280;45943;53.148;8.204;2023-02-16T13:05:28;102151.81;;;10.45;100.00
49216;BME280;45943;53.148;8.204;2023-02-16T13:08:01;102150.88;;;10.30;100.00
49216;BME280;45943;53.148;8.204;2023-02-16T13:13:42;102152.09;;;10.40;100.00
49216;BME280;45943;53.148;8.204;2023-02-16T13:16:15;102134.81;;;10.30;100.00
49216;BME280;45943;53.148;8.204;2023-02-16T13:18:48;102144.31;;;10.36;100.00
49216;BME280;45943;53.148;8.204;2023-02-16T13:21:25;102140.00;;;10.33;100.00
49216;BME280;45943;53.148;8.204;2023-02-16T13:44:01;102142.72;;;10.47;100.00
49216;BME280;45943;53.148;8.204;2023-02-16T13:46:36;102139.63;;;10.39;100.00
49216;BME280;45943;53.148;8.204;2023-02-16T13:49:36;102145.44;;;10.31;100.00
49216;BME280;45943;53.148;8.204;2023-02-16T13:52:08;102141.13;;;10.29;100.00
49216;BME280;45943;53.148;8.204;2023-02-16T13:54:39;102138.44;;;10.29;100.00
49216;BME280;45943;53.148;8.204;2023-02-16T13:57:09;102139.31;;;10.29;100.00
49216;BME280;45943;53.148;8.204;2023-02-16T14:02:07;102130.28;;;10.30;100.00
49216;BME280;45943;53.148;8.204;2023-02-16T14:12:16;102128.25;;;10.50;100.00
49216;BME280;45943;53.148;8.204;2023-02-16T14:19:52;102127.50;;;10.48;100.00
49216;BME280;45943;53.148;8.204;2023-02-16T14:23:19;102120.97;;;10.52;100.00
49216;BME280;45943;53.148;8.204;2023-02-16T14:27:50;102112.16;;;10.50;100.00
49216;BME280;45943;53.148;8.204;2023-02-16T14:33:18;102109.66;;;10.47;100.00
49216;BME280;45943;53.148;8.204;2023-02-16T14:38:27;102116.66;;;10.49;100.00
49216;BME280;45943;53.148;8.204;2023-02-16T14:40:59;102123.66;;;10.52;100.00
49216;BME280;45943;53.148;8.204;2023-02-16T14:43:29;102117.38;;;10.53;100.00
49216;BME280;45943;53.148;8.204;2023-02-16T15:00:31;102106.44;;;10.56;100.00
49216;BME280;45943;53.148;8.204;2023-02-16T15:05:48;102103.41;;;10.62;100.00
49216;BME280;45943;53.148;8.204;2023-02-16T15:08:24;102102.81;;;10.71;100.00
49216;BME280;45943;53.148;8.204;2023-02-16T15:13:39;102094.94;;;10.68;100.00
49216;BME280;45943;53.148;8.204;2023-02-16T15:16:07;102094.28;;;10.65;100.00
49216;BME280;45943;53.148;8.204;2023-02-16T15:18:43;102087.00;;;10.67;100.00
49216;BME280;45943;53.148;8.204;2023-02-16T15:21:17;102087.59;;;10.72;100.00
49216;BME280;45943;53.148;8.204;2023-02-16T15:23:49;102095.66;;;10.72;100.00
49216;BME280;45943;53.148;8.204;2023-02-16T15:26:18;102098.13;;;10.75;100.00
49216;BME280;45943;53.148;8.204;2023-02-16T15:28:56;102090.19;;;10.73;100.00
49216;BME280;45943;53.148;8.204;2023-02-16T15:33:58;102083.25;;;10.69;100.00
49216;BME280;45943;53.148;8.204;2023-02-16T15:36:36;102084.13;;;10.70;100.00
49216;BME280;45943;53.148;8.204;2023-02-16T15:39:06;102081.63;;;10.67;100.00
49216;BME280;45943;53.148;8.204;2023-02-16T15:41:41;102083.97;;;10.73;100.00
49216;BME280;45943;53.148;8.204;2023-02-16T15:44:26;102084.81;;;10.73;100.00
49216;BME280;45943;53.148;8.204;2023-02-16T15:47:06;102087.38;;;10.60;100.00
49216;BME280;45943;53.148;8.204;2023-02-16T15:49:34;102090.44;;;10.54;100.00
49216;BME280;45943;53.148;8.204;2023-02-16T15:52:04;102093.03;;;10.56;100.00
49216;BME280;45943;53.148;8.204;2023-02-16T15:54:36;102087.75;;;10.54;100.00
49216;BME280;45943;53.148;8.204;2023-02-16T15:59:50;102086.78;;;10.55;100.00